TimeEDT,TemperatureF,Dew PointF,Humidity,Sea Level PressureIn,VisibilityMPH,Wind Direction,Wind SpeedMPH,Gust SpeedMPH,PrecipitationIn,Events,Conditions,WindDirDegrees,DateUTC
12:15 AM,39.2,39.2,100,29.98,1.2,South,4.6,-,N/A,,Overcast,190,2013-04-10 04:15:00
12:35 AM,39.2,37.4,93,29.96,7.0,Calm,Calm,-,N/A,,Overcast,0,2013-04-10 04:35:00
12:55 AM,39.2,39.2,100,29.96,1.5,Calm,Calm,-,N/A,,Overcast,0,2013-04-10 04:55:00
1:15 AM,39.2,37.4,93,29.95,1.0,ENE,3.5,-,N/A,,Overcast,70,2013-04-10 05:15:00
1:35 AM,39.2,39.2,100,29.95,0.8,Calm,Calm,-,N/A,,Overcast,0,2013-04-10 05:35:00
1:55 AM,39.2,39.2,100,29.94,0.5,Calm,Calm,-,N/A,,Overcast,0,2013-04-10 05:55:00
2:15 AM,39.2,37.4,93,29.94,0.5,Calm,Calm,-,N/A,,Overcast,0,2013-04-10 06:15:00
2:35 AM,39.2,37.4,93,29.95,0.5,Calm,Calm,-,N/A,,Overcast,0,2013-04-10 06:35:00
2:55 AM,39.2,37.4,93,29.96,1.0,Calm,Calm,-,0.01,,Overcast,0,2013-04-10 06:55:00
3:15 AM,39.2,37.4,93,29.97,3.0,WSW,3.5,-,0.01,,Overcast,240,2013-04-10 07:15:00
3:35 AM,39.2,37.4,93,29.99,10.0,Calm,Calm,-,0.02,,Overcast,0,2013-04-10 07:35:00
3:55 AM,39.2,39.2,100,29.98,9.0,SW,4.6,-,0.05,,Mostly Cloudy,220,2013-04-10 07:55:00
4:15 AM,39.2,39.2,100,29.97,10.0,SSW,5.8,-,0.01,,Overcast,200,2013-04-10 08:15:00
4:35 AM,39.2,39.2,100,29.96,10.0,SSW,4.6,-,0.02,,Overcast,210,2013-04-10 08:35:00
4:55 AM,39.2,39.2,100,29.95,10.0,SW,4.6,-,0.02,,Overcast,220,2013-04-10 08:55:00
5:15 AM,39.2,37.4,93,29.95,10.0,SSW,3.5,-,0.01,,Overcast,210,2013-04-10 09:15:00
5:35 AM,39.2,39.2,100,29.96,10.0,West,3.5,-,0.01,,Overcast,280,2013-04-10 09:35:00
5:55 AM,39.2,39.2,100,29.95,9.0,Calm,Calm,-,0.01,,Overcast,0,2013-04-10 09:55:00
6:15 AM,39.2,39.2,100,29.94,10.0,SSW,3.5,-,N/A,,Overcast,210,2013-04-10 10:15:00
6:35 AM,39.2,37.4,93,29.94,8.0,West,3.5,-,N/A,,Overcast,280,2013-04-10 10:35:00
6:55 AM,39.2,37.4,93,29.95,9.0,West,3.5,-,N/A,,Overcast,270,2013-04-10 10:55:00
7:15 AM,41.0,39.2,93,29.96,10.0,WSW,3.5,-,N/A,,Overcast,250,2013-04-10 11:15:00
7:35 AM,41.0,39.2,93,29.96,8.0,West,5.8,-,N/A,,Overcast,260,2013-04-10 11:35:00
7:55 AM,41.0,39.2,93,29.96,10.0,West,6.9,-,N/A,,Overcast,260,2013-04-10 11:55:00
8:15 AM,41.0,39.2,93,29.96,10.0,West,6.9,-,N/A,,Overcast,260,2013-04-10 12:15:00
8:35 AM,41.0,41.0,100,29.96,10.0,West,5.8,-,N/A,,Overcast,270,2013-04-10 12:35:00
8:55 AM,42.8,41.0,93,29.96,10.0,West,9.2,-,N/A,,Overcast,280,2013-04-10 12:55:00
9:15 AM,42.8,41.0,93,29.95,10.0,West,8.1,-,N/A,,Overcast,260,2013-04-10 13:15:00
9:35 AM,42.8,41.0,93,29.96,10.0,West,6.9,-,N/A,,Overcast,260,2013-04-10 13:35:00
9:55 AM,42.8,41.0,93,29.96,10.0,West,8.1,-,N/A,,Overcast,260,2013-04-10 13:55:00
10:15 AM,44.6,41.0,87,29.96,10.0,WSW,8.1,-,N/A,,Overcast,240,2013-04-10 14:15:00
10:35 AM,44.6,42.8,93,29.96,10.0,West,6.9,-,N/A,,Overcast,260,2013-04-10 14:35:00
10:55 AM,44.6,42.8,93,29.96,10.0,West,9.2,-,N/A,,Overcast,260,2013-04-10 14:55:00
11:15 AM,44.6,42.8,93,29.98,10.0,West,9.2,-,N/A,,Overcast,260,2013-04-10 15:15:00
11:35 AM,44.6,42.8,93,29.96,10.0,West,8.1,-,N/A,,Overcast,260,2013-04-10 15:35:00
11:55 AM,46.4,42.8,87,29.95,10.0,West,8.1,-,N/A,,Overcast,260,2013-04-10 15:55:00
12:15 PM,46.4,44.6,93,29.94,10.0,West,10.4,-,N/A,,Overcast,260,2013-04-10 16:15:00
12:35 PM,48.2,42.8,82,29.94,10.0,West,9.2,-,N/A,,Overcast,270,2013-04-10 16:35:00
1:15 PM,48.2,42.8,82,29.94,10.0,NW,4.6,-,N/A,,Overcast,310,2013-04-10 17:15:00
1:35 PM,51.8,42.8,71,29.93,10.0,West,8.1,-,N/A,,Mostly Cloudy,280,2013-04-10 17:35:00
1:55 PM,51.8,42.8,71,29.92,10.0,WNW,4.6,-,N/A,,Overcast,290,2013-04-10 17:55:00
2:15 PM,50.0,44.6,82,29.92,10.0,SSE,6.9,-,N/A,,Mostly Cloudy,150,2013-04-10 18:15:00
2:35 PM,51.8,44.6,76,29.91,10.0,South,15.0,-,N/A,,Mostly Cloudy,170,2013-04-10 18:35:00
2:55 PM,48.2,42.8,82,29.92,10.0,South,11.5,-,N/A,,Overcast,170,2013-04-10 18:55:00
3:15 PM,46.4,42.8,87,29.92,10.0,South,8.1,-,N/A,,Overcast,190,2013-04-10 19:15:00
3:35 PM,48.2,44.6,87,29.92,10.0,South,8.1,-,N/A,,Overcast,190,2013-04-10 19:35:00
3:55 PM,46.4,42.8,87,29.91,10.0,South,8.1,-,N/A,,Overcast,180,2013-04-10 19:55:00
4:15 PM,44.6,42.8,93,29.91,10.0,SSE,5.8,-,N/A,,Mostly Cloudy,160,2013-04-10 20:15:00
4:35 PM,46.4,42.8,87,29.90,10.0,South,4.6,-,N/A,,Mostly Cloudy,170,2013-04-10 20:35:00
4:55 PM,46.4,42.8,87,29.90,10.0,SW,3.5,-,N/A,,Overcast,220,2013-04-10 20:55:00
5:15 PM,48.2,42.8,82,29.90,10.0,WSW,6.9,-,N/A,,Mostly Cloudy,240,2013-04-10 21:15:00
5:35 PM,48.2,42.8,82,29.90,10.0,SW,6.9,-,N/A,,Overcast,220,2013-04-10 21:35:00
5:55 PM,46.4,42.8,87,29.89,10.0,WSW,8.1,-,N/A,,Overcast,240,2013-04-10 21:55:00
6:15 PM,46.4,42.8,87,29.89,10.0,WSW,6.9,-,N/A,,Overcast,250,2013-04-10 22:15:00
6:35 PM,46.4,42.8,87,29.91,10.0,WSW,9.2,-,N/A,,Overcast,240,2013-04-10 22:35:00
6:55 PM,46.4,42.8,87,29.90,10.0,WSW,5.8,-,N/A,,Overcast,250,2013-04-10 22:55:00
7:15 PM,46.4,42.8,87,29.90,10.0,WSW,4.6,-,N/A,,Overcast,240,2013-04-10 23:15:00
7:35 PM,46.4,42.8,87,29.90,10.0,SW,5.8,-,N/A,,Overcast,230,2013-04-10 23:35:00
7:55 PM,46.4,42.8,87,29.90,10.0,WSW,6.9,-,N/A,,Overcast,250,2013-04-10 23:55:00
8:15 PM,44.6,42.8,93,29.88,10.0,West,3.5,-,N/A,,Overcast,260,2013-04-11 00:15:00
8:35 PM,44.6,42.8,93,29.89,10.0,WSW,3.5,-,N/A,,Overcast,250,2013-04-11 00:35:00
8:55 PM,44.6,42.8,93,29.92,10.0,West,5.8,-,N/A,,Mostly Cloudy,260,2013-04-11 00:55:00
9:15 PM,44.6,42.8,93,29.94,9.0,West,5.8,-,N/A,,Overcast,270,2013-04-11 01:15:00
9:35 PM,44.6,42.8,93,29.92,10.0,West,3.5,-,N/A,,Mostly Cloudy,270,2013-04-11 01:35:00
9:55 PM,44.6,42.8,93,29.91,10.0,Calm,Calm,-,N/A,,Partly Cloudy,0,2013-04-11 01:55:00
10:15 PM,44.6,42.8,93,29.91,10.0,West,3.5,-,N/A,,Partly Cloudy,270,2013-04-11 02:15:00
10:36 PM,44.6,42.8,93,29.91,10.0,WNW,3.5,-,N/A,,Mostly Cloudy,290,2013-04-11 02:36:00
10:55 PM,44.6,42.8,93,29.91,9.0,West,3.5,-,N/A,,Mostly Cloudy,260,2013-04-11 02:55:00
11:15 PM,44.6,42.8,93,29.91,10.0,West,4.6,-,N/A,,Overcast,260,2013-04-11 03:15:00
11:35 PM,44.6,42.8,93,29.91,10.0,WSW,5.8,-,N/A,,Scattered Clouds,250,2013-04-11 03:35:00
11:55 PM,44.6,42.8,93,29.90,10.0,WNW,3.5,-,N/A,,Partly Cloudy,290,2013-04-11 03:55:00